Time;durP1;ratioP1;P1;durP2;ratioP2;P2;SDS_P1;SDS_P2;PMS_P1;PMS_P2;Temp;Humidity;BMP_temperature;BMP_pressure;BME280_temperature;BME280_humidity;BME280_pressure;Samples;Min_cycle;Max_cycle;Signal;HPM_P1;HPM_P2
2023/09/09 00:00:33;;;;;;;6.65;5.70;;;;;;;;;;5044381;28;20231;-95
2023/09/09 00:03:00;;;;;;;7.20;5.47;;;;;;;;;;5039080;28;20242;-92
2023/09/09 00:05:30;;;;;;;6.72;5.53;;;;;;;;;;5026566;28;20322;-92
2023/09/09 00:07:57;;;;;;;7.10;6.38;;;;;;;;;;5029444;28;20270;-91
2023/09/09 00:10:25;;;;;;;6.23;5.57;;;;;;;;;;5029437;28;20310;-91
2023/09/09 00:12:53;;;;;;;6.13;5.53;;;;;;;;;;5025044;28;20219;-91
2023/09/09 00:15:20;;;;;;;7.45;6.60;;;;;;;;;;5031660;28;20318;-91
2023/09/09 00:17:47;;;;;;;6.77;6.07;;;;;;;;;;5030086;28;20653;-91
2023/09/09 00:20:16;;;;;;;6.70;6.10;;;;;;;;;;5034890;28;20238;-91
2023/09/09 00:22:43;;;;;;;7.13;5.90;;;;;;;;;;5041098;28;20226;-90
2023/09/09 00:25:10;;;;;;;5.77;5.27;;;;;;;;;;5032897;28;20230;-91
2023/09/09 00:27:39;;;;;;;5.90;5.33;;;;;;;;;;5039643;28;20203;-91
2023/09/09 00:30:06;;;;;;;5.70;5.10;;;;;;;;;;5034658;28;20234;-91
2023/09/09 00:32:33;;;;;;;6.20;5.50;;;;;;;;;;5028188;28;20231;-91
2023/09/09 00:35:01;;;;;;;5.20;4.67;;;;;;;;;;5033811;28;20230;-91
2023/09/09 00:37:28;;;;;;;5.63;4.87;;;;;;;;;;5034386;28;20231;-91
2023/09/09 00:39:55;;;;;;;5.83;4.80;;;;;;;;;;5035320;28;20235;-92
2023/09/09 00:42:22;;;;;;;5.43;4.93;;;;;;;;;;5041727;28;20225;-91
2023/09/09 00:44:50;;;;;;;6.03;4.93;;;;;;;;;;5038199;28;20184;-91
2023/09/09 00:47:18;;;;;;;6.57;5.27;;;;;;;;;;5025240;28;20190;-91
2023/09/09 00:49:46;;;;;;;7.63;4.43;;;;;;;;;;5027562;28;20216;-91
2023/09/09 00:52:13;;;;;;;4.87;4.37;;;;;;;;;;5028246;28;20227;-91
2023/09/09 00:54:40;;;;;;;5.30;4.20;;;;;;;;;;5033303;28;20214;-91
2023/09/09 00:57:08;;;;;;;7.87;5.23;;;;;;;;;;5033459;28;20256;-92
2023/09/09 00:59:35;;;;;;;7.03;5.17;;;;;;;;;;5025704;28;20227;-91
2023/09/09 01:02:04;;;;;;;5.03;4.63;;;;;;;;;;5028751;28;20314;-91
2023/09/09 01:04:32;;;;;;;7.83;5.20;;;;;;;;;;5025606;28;20291;-91
2023/09/09 01:07:02;;;;;;;4.83;4.43;;;;;;;;;;5031999;28;20223;-91
2023/09/09 01:09:29;;;;;;;7.30;4.80;;;;;;;;;;5029186;28;20270;-91
2023/09/09 01:11:56;;;;;;;5.97;4.70;;;;;;;;;;5029266;28;20238;-91
2023/09/09 01:14:23;;;;;;;6.07;4.63;;;;;;;;;;5030696;28;20210;-91
2023/09/09 01:16:51;;;;;;;4.93;4.43;;;;;;;;;;5039197;28;20226;-91
2023/09/09 01:19:20;;;;;;;5.40;4.77;;;;;;;;;;5033050;28;20313;-91
2023/09/09 01:21:48;;;;;;;5.87;4.63;;;;;;;;;;5024257;28;20598;-91
2023/09/09 01:24:16;;;;;;;6.47;4.67;;;;;;;;;;5029863;28;20273;-91
2023/09/09 01:26:44;;;;;;;7.03;5.43;;;;;;;;;;5025527;28;20611;-90
2023/09/09 01:29:11;;;;;;;9.93;5.13;;;;;;;;;;5028046;28;20560;-90
2023/09/09 01:31:38;;;;;;;10.30;5.30;;;;;;;;;;5038294;28;20309;-91
2023/09/09 01:34:06;;;;;;;5.20;4.70;;;;;;;;;;5031333;28;20567;-91
2023/09/09 01:36:33;;;;;;;6.60;4.80;;;;;;;;;;5039363;28;20237;-91
2023/09/09 01:39:00;;;;;;;5.43;4.93;;;;;;;;;;5024779;28;20266;-92
2023/09/09 01:41:29;;;;;;;5.80;5.20;;;;;;;;;;5024599;28;20238;-92
2023/09/09 01:43:56;;;;;;;6.33;5.00;;;;;;;;;;5028416;28;20210;-91
2023/09/09 01:46:23;;;;;;;8.13;4.97;;;;;;;;;;5032140;28;20291;-91
2023/09/09 01:48:50;;;;;;;8.00;4.67;;;;;;;;;;5028415;28;20207;-92
2023/09/09 01:51:17;;;;;;;5.40;4.90;;;;;;;;;;5017417;28;20239;-90
2023/09/09 01:53:45;;;;;;;6.53;4.83;;;;;;;;;;5033889;28;20231;-90
2023/09/09 01:56:12;;;;;;;5.80;4.47;;;;;;;;;;5028053;28;20239;-90
2023/09/09 01:58:40;;;;;;;4.60;4.20;;;;;;;;;;5036858;28;20199;-91
2023/09/09 02:01:07;;;;;;;5.00;4.60;;;;;;;;;;5033187;28;20235;-91
2023/09/09 02:03:34;;;;;;;7.77;4.77;;;;;;;;;;5037717;28;20667;-91
2023/09/09 02:06:30;;;;;;;5.83;5.20;;;;;;;;;;5034019;28;20219;-91
2023/09/09 02:08:57;;;;;;;7.63;4.50;;;;;;;;;;5016625;28;20217;-91
2023/09/09 02:11:24;;;;;;;6.63;5.27;;;;;;;;;;5031588;28;20254;-90
2023/09/09 02:13:53;;;;;;;6.03;5.00;;;;;;;;;;5033085;28;20211;-91
2023/09/09 02:16:20;;;;;;;7.23;4.37;;;;;;;;;;5038025;28;20231;-91
2023/09/09 02:18:48;;;;;;;5.97;4.90;;;;;;;;;;5036550;28;20213;-90
2023/09/09 02:21:15;;;;;;;8.73;5.23;;;;;;;;;;5038120;28;20241;-91
2023/09/09 02:23:42;;;;;;;7.97;4.57;;;;;;;;;;5044605;28;20265;-91
2023/09/09 02:26:09;;;;;;;5.40;4.67;;;;;;;;;;5031554;28;20243;-90
2023/09/09 02:28:36;;;;;;;6.93;4.60;;;;;;;;;;5033831;28;20649;-91
2023/09/09 02:31:05;;;;;;;6.33;4.63;;;;;;;;;;5037173;28;20240;-91
2023/09/09 02:33:32;;;;;;;5.40;4.77;;;;;;;;;;5036104;28;20266;-90
2023/09/09 02:36:00;;;;;;;4.20;3.80;;;;;;;;;;5028621;28;20648;-91
2023/09/09 02:38:28;;;;;;;6.77;4.70;;;;;;;;;;5040220;28;20309;-91
2023/09/09 02:40:55;;;;;;;6.73;4.70;;;;;;;;;;5045006;28;20290;-91
2023/09/09 02:43:22;;;;;;;9.10;4.60;;;;;;;;;;5033073;28;20234;-91
2023/09/09 02:45:49;;;;;;;5.27;4.27;;;;;;;;;;5032102;28;20237;-91
2023/09/09 02:48:17;;;;;;;7.17;5.20;;;;;;;;;;5033619;28;20615;-91
2023/09/09 02:50:45;;;;;;;4.87;4.47;;;;;;;;;;5018035;28;20231;-90
2023/09/09 02:53:12;;;;;;;5.53;5.03;;;;;;;;;;5037421;28;20238;-90
2023/09/09 02:55:39;;;;;;;7.43;5.50;;;;;;;;;;5043621;28;20230;-90
2023/09/09 02:58:06;;;;;;;7.63;6.10;;;;;;;;;;5034500;28;20240;-90
2023/09/09 03:00:33;;;;;;;8.80;6.57;;;;;;;;;;5034226;28;20207;-90
2023/09/09 03:03:00;;;;;;;12.03;8.20;;;;;;;;;;5039136;28;20214;-91
2023/09/09 03:05:29;;;;;;;10.23;6.00;;;;;;;;;;5042566;28;20230;-90
2023/09/09 03:07:58;;;;;;;7.90;6.23;;;;;;;;;;5026116;28;20246;-90
2023/09/09 03:10:26;;;;;;;6.07;5.10;;;;;;;;;;5031864;28;20241;-91
2023/09/09 03:12:56;;;;;;;7.50;5.10;;;;;;;;;;5028547;28;20312;-91
2023/09/09 03:15:23;;;;;;;5.90;5.30;;;;;;;;;;5042826;28;20230;-91
2023/09/09 03:17:50;;;;;;;5.93;5.17;;;;;;;;;;5036922;28;20227;-91
2023/09/09 03:20:18;;;;;;;8.00;5.33;;;;;;;;;;5029210;28;20611;-91
2023/09/09 03:22:46;;;;;;;6.67;6.07;;;;;;;;;;5033773;28;20313;-91
2023/09/09 03:25:13;;;;;;;8.03;5.43;;;;;;;;;;5034712;28;20222;-91
2023/09/09 03:27:40;;;;;;;6.73;6.10;;;;;;;;;;5035690;28;20212;-91
2023/09/09 03:30:09;;;;;;;7.53;5.43;;;;;;;;;;5030808;28;20239;-90
2023/09/09 03:32:36;;;;;;;6.70;5.90;;;;;;;;;;5031172;28;20219;-90
2023/09/09 03:35:03;;;;;;;8.30;5.73;;;;;;;;;;5032168;28;20238;-91
2023/09/09 03:37:30;;;;;;;6.93;5.27;;;;;;;;;;5030436;28;20293;-91
2023/09/09 03:39:59;;;;;;;5.50;5.00;;;;;;;;;;5026986;28;20230;-90
2023/09/09 03:42:26;;;;;;;7.90;6.33;;;;;;;;;;5029944;28;20244;-90
2023/09/09 03:44:54;;;;;;;6.00;5.43;;;;;;;;;;5042364;28;20257;-90
2023/09/09 03:47:21;;;;;;;5.57;5.07;;;;;;;;;;5032458;28;20720;-90
2023/09/09 03:49:49;;;;;;;6.87;5.00;;;;;;;;;;5039182;28;20257;-90
2023/09/09 03:52:16;;;;;;;4.97;4.50;;;;;;;;;;5032453;28;20224;-91
2023/09/09 03:54:43;;;;;;;6.47;5.07;;;;;;;;;;5036648;28;20221;-90
2023/09/09 03:57:12;;;;;;;5.57;4.80;;;;;;;;;;5035059;28;20719;-89
2023/09/09 03:59:39;;;;;;;6.37;5.77;;;;;;;;;;5028960;28;20299;-91
2023/09/09 04:02:06;;;;;;;5.73;4.93;;;;;;;;;;5042508;28;20238;-91
2023/09/09 04:04:33;;;;;;;5.97;4.80;;;;;;;;;;5034603;28;20252;-90
2023/09/09 04:07:01;;;;;;;6.10;5.50;;;;;;;;;;5023585;28;20194;-90
2023/09/09 04:09:28;;;;;;;7.50;5.17;;;;;;;;;;5034988;28;20245;-90
2023/09/09 04:11:55;;;;;;;5.53;5.03;;;;;;;;;;5031770;28;20334;-91
2023/09/09 04:14:23;;;;;;;6.20;5.17;;;;;;;;;;5028554;28;20203;-91
2023/09/09 04:16:50;;;;;;;7.07;5.97;;;;;;;;;;5036419;28;20255;-91
2023/09/09 04:19:18;;;;;;;9.77;6.00;;;;;;;;;;5042072;28;20298;-91
2023/09/09 04:21:45;;;;;;;6.77;5.10;;;;;;;;;;5031793;28;20604;-90
2023/09/09 04:24:12;;;;;;;6.43;4.97;;;;;;;;;;5035112;28;20302;-91
2023/09/09 04:26:39;;;;;;;4.67;4.17;;;;;;;;;;5032696;28;20241;-91
2023/09/09 04:29:07;;;;;;;6.40;4.97;;;;;;;;;;5041016;28;20203;-91
2023/09/09 04:31:35;;;;;;;9.60;5.83;;;;;;;;;;5025213;28;20231;-91
2023/09/09 04:34:02;;;;;;;10.70;5.10;;;;;;;;;;5043084;28;20226;-91
2023/09/09 04:36:29;;;;;;;5.23;4.83;;;;;;;;;;5041839;28;20230;-91
2023/09/09 04:38:56;;;;;;;6.13;4.93;;;;;;;;;;5039991;28;20226;-91
2023/09/09 04:41:24;;;;;;;5.13;4.63;;;;;;;;;;5036375;28;20294;-91
2023/09/09 04:43:51;;;;;;;6.63;5.63;;;;;;;;;;5042765;28;20229;-91
2023/09/09 04:46:18;;;;;;;5.67;4.73;;;;;;;;;;5036981;28;20227;-91
2023/09/09 04:48:47;;;;;;;6.17;4.90;;;;;;;;;;5040589;28;20213;-91
2023/09/09 04:51:14;;;;;;;5.03;4.57;;;;;;;;;;5041503;28;20238;-91
2023/09/09 04:53:41;;;;;;;5.27;4.57;;;;;;;;;;5040993;28;20234;-91
2023/09/09 04:56:08;;;;;;;8.87;4.90;;;;;;;;;;5025608;28;20235;-91
2023/09/09 04:58:35;;;;;;;5.73;5.13;;;;;;;;;;5037628;28;20226;-91
2023/09/09 05:01:02;;;;;;;6.83;5.13;;;;;;;;;;5038433;28;20237;-91
2023/09/09 05:03:29;;;;;;;7.97;5.80;;;;;;;;;;5039697;28;20193;-91
2023/09/09 05:05:58;;;;;;;6.37;5.53;;;;;;;;;;5023444;28;20235;-91
2023/09/09 05:08:25;;;;;;;7.60;5.13;;;;;;;;;;5040838;28;20206;-91
2023/09/09 05:10:52;;;;;;;5.27;4.73;;;;;;;;;;5024049;28;20688;-91
2023/09/09 05:13:20;;;;;;;5.70;4.40;;;;;;;;;;5035588;28;20280;-90
2023/09/09 05:15:47;;;;;;;4.53;4.13;;;;;;;;;;5035508;28;20227;-91
2023/09/09 05:18:14;;;;;;;5.10;3.93;;;;;;;;;;5033842;28;20223;-91
2023/09/09 05:20:41;;;;;;;5.53;4.37;;;;;;;;;;5034785;28;20234;-90
2023/09/09 05:23:10;;;;;;;7.83;4.33;;;;;;;;;;5039879;28;20207;-91
2023/09/09 05:25:37;;;;;;;9.33;5.27;;;;;;;;;;5031480;28;20246;-91
2023/09/09 05:28:04;;;;;;;6.07;4.70;;;;;;;;;;5039525;28;20202;-91
2023/09/09 05:30:31;;;;;;;5.33;4.80;;;;;;;;;;5027318;28;20233;-91
2023/09/09 05:32:58;;;;;;;7.27;4.63;;;;;;;;;;5030539;28;20230;-91
2023/09/09 05:35:26;;;;;;;5.80;5.10;;;;;;;;;;5034906;28;20241;-90
2023/09/09 05:37:53;;;;;;;5.73;5.23;;;;;;;;;;5031724;28;20226;-91
2023/09/09 05:40:21;;;;;;;7.30;5.57;;;;;;;;;;5033094;28;20227;-90
2023/09/09 05:42:48;;;;;;;6.50;5.83;;;;;;;;;;5021868;28;20219;-91
2023/09/09 05:45:16;;;;;;;7.47;6.67;;;;;;;;;;5034862;28;20402;-90
2023/09/09 05:47:44;;;;;;;7.73;6.60;;;;;;;;;;5031713;28;20213;-90
2023/09/09 05:50:12;;;;;;;8.20;6.73;;;;;;;;;;5018787;28;20834;-90
2023/09/09 05:52:39;;;;;;;7.03;6.30;;;;;;;;;;5028702;28;20255;-90
2023/09/09 05:55:08;;;;;;;7.60;6.80;;;;;;;;;;5025049;28;20240;-90
2023/09/09 05:57:38;;;;;;;8.77;6.50;;;;;;;;;;5022419;28;20235;-90
2023/09/09 06:00:05;;;;;;;9.20;6.60;;;;;;;;;;5039744;28;20226;-89
2023/09/09 06:02:32;;;;;;;7.63;6.83;;;;;;;;;;5026877;28;20241;-94
2023/09/09 06:04:59;;;;;;;10.03;8.00;;;;;;;;;;5020893;28;20237;-93
2023/09/09 06:07:27;;;;;;;9.27;7.93;;;;;;;;;;5031229;28;20186;-87
2023/09/09 06:09:54;;;;;;;12.60;8.20;;;;;;;;;;5024256;28;20234;-88
2023/09/09 06:12:21;;;;;;;10.20;9.10;;;;;;;;;;5027872;28;20230;-88
2023/09/09 06:14:49;;;;;;;10.50;8.77;;;;;;;;;;5034479;28;20268;-88
2023/09/09 06:17:16;;;;;;;12.00;8.93;;;;;;;;;;5033539;28;20206;-86
2023/09/09 06:19:44;;;;;;;9.80;8.80;;;;;;;;;;5027421;28;20213;-90
2023/09/09 06:22:11;;;;;;;11.57;9.53;;;;;;;;;;5019701;28;20219;-87
2023/09/09 06:24:38;;;;;;;11.40;9.90;;;;;;;;;;5025772;28;20210;-87
2023/09/09 06:27:05;;;;;;;11.70;9.70;;;;;;;;;;5017514;28;20758;-85
2023/09/09 06:29:32;;;;;;;12.03;10.50;;;;;;;;;;5029403;28;20226;-85
2023/09/09 06:32:03;;;;;;;11.77;10.30;;;;;;;;;;5018538;28;20227;-85
2023/09/09 06:34:30;;;;;;;13.30;11.37;;;;;;;;;;5027512;28;20218;-86
2023/09/09 06:36:57;;;;;;;12.37;10.87;;;;;;;;;;5031561;28;20206;-85
2023/09/09 06:39:24;;;;;;;11.23;10.03;;;;;;;;;;5028717;28;20226;-86
2023/09/09 06:41:51;;;;;;;13.63;11.27;;;;;;;;;;5022240;28;20235;-86
2023/09/09 06:44:18;;;;;;;12.10;10.80;;;;;;;;;;5028342;28;20213;-87
2023/09/09 06:46:45;;;;;;;11.93;10.63;;;;;;;;;;5024857;28;20322;-85
2023/09/09 06:49:14;;;;;;;13.97;10.87;;;;;;;;;;5013200;28;20668;-86
2023/09/09 06:51:41;;;;;;;12.17;10.87;;;;;;;;;;5032917;28;20231;-86
2023/09/09 06:54:08;;;;;;;12.47;11.27;;;;;;;;;;5020466;28;20206;-86
2023/09/09 06:56:35;;;;;;;11.40;10.20;;;;;;;;;;5025068;28;20605;-86
2023/09/09 06:59:04;;;;;;;11.67;10.30;;;;;;;;;;5023418;28;20234;-86
2023/09/09 07:01:31;;;;;;;12.77;9.70;;;;;;;;;;5030180;28;20239;-86
2023/09/09 07:03:58;;;;;;;14.27;10.00;;;;;;;;;;5027067;28;20301;-86
2023/09/09 07:06:27;;;;;;;12.93;9.57;;;;;;;;;;5025406;28;20223;-85
2023/09/09 07:08:54;;;;;;;11.57;9.93;;;;;;;;;;5033718;28;20207;-85
2023/09/09 07:11:21;;;;;;;11.53;9.57;;;;;;;;;;5028046;28;20239;-85
2023/09/09 07:13:48;;;;;;;13.77;9.53;;;;;;;;;;5037863;28;20763;-89
2023/09/09 07:16:16;;;;;;;9.50;8.60;;;;;;;;;;5038846;28;20234;-86
2023/09/09 07:18:43;;;;;;;10.37;9.03;;;;;;;;;;5028387;28;20254;-86
2023/09/09 07:21:10;;;;;;;10.17;9.17;;;;;;;;;;5024652;28;20686;-86
2023/09/09 07:23:39;;;;;;;9.60;8.53;;;;;;;;;;5024763;28;20220;-87
2023/09/09 07:26:06;;;;;;;13.67;9.37;;;;;;;;;;5026970;28;20456;-87
2023/09/09 07:28:33;;;;;;;9.63;8.67;;;;;;;;;;5031119;28;20207;-87
2023/09/09 07:31:02;;;;;;;11.10;8.77;;;;;;;;;;5033557;28;20236;-86
2023/09/09 07:33:29;;;;;;;10.80;9.13;;;;;;;;;;5030828;28;20213;-86
2023/09/09 07:35:56;;;;;;;12.50;8.37;;;;;;;;;;5034136;28;20229;-86
2023/09/09 07:38:23;;;;;;;12.43;8.80;;;;;;;;;;5031511;28;20603;-86
2023/09/09 07:40:57;;;;;;;9.03;8.13;;;;;;;;;;5027941;28;20231;-86
2023/09/09 07:43:24;;;;;;;11.13;8.10;;;;;;;;;;5030111;28;20268;-88
2023/09/09 07:45:51;;;;;;;9.88;7.40;;;;;;;;;;5037762;28;20653;-89
2023/09/09 07:48:18;;;;;;;9.23;7.45;;;;;;;;;;5036577;28;20344;-89
2023/09/09 07:50:51;;;;;;;11.45;8.77;;;;;;;;;;5032782;28;20317;-90
2023/09/09 07:53:19;;;;;;;9.95;7.95;;;;;;;;;;5022672;28;20579;-88
2023/09/09 07:55:48;;;;;;;10.55;7.40;;;;;;;;;;5035166;28;20273;-90
2023/09/09 07:58:16;;;;;;;10.65;7.88;;;;;;;;;;5021884;28;20574;-94
2023/09/09 08:00:44;;;;;;;9.02;7.75;;;;;;;;;;5036813;28;20508;-92
2023/09/09 08:03:11;;;;;;;8.52;7.65;;;;;;;;;;5029229;28;20210;-86
2023/09/09 08:05:38;;;;;;;8.73;7.28;;;;;;;;;;5035373;28;20442;-86
2023/09/09 08:08:06;;;;;;;86.95;28.00;;;;;;;;;;5020521;28;20196;-86
2023/09/09 08:10:34;;;;;;;8.20;6.88;;;;;;;;;;5036343;28;20238;-86
2023/09/09 08:13:02;;;;;;;7.70;6.90;;;;;;;;;;5028207;28;20231;-86
2023/09/09 08:15:30;;;;;;;9.45;6.93;;;;;;;;;;5022596;28;20254;-86
2023/09/09 08:17:57;;;;;;;7.15;6.55;;;;;;;;;;5031614;28;20856;-87
2023/09/09 08:20:24;;;;;;;7.25;6.55;;;;;;;;;;5023017;28;20254;-87
2023/09/09 08:22:51;;;;;;;8.27;6.70;;;;;;;;;;5031779;28;20230;-86
2023/09/09 08:25:19;;;;;;;7.05;6.35;;;;;;;;;;5035799;28;20596;-87
2023/09/09 08:27:46;;;;;;;8.15;6.45;;;;;;;;;;5027589;28;20207;-87
2023/09/09 08:30:15;;;;;;;7.80;6.50;;;;;;;;;;5035198;28;20270;-87
2023/09/09 08:32:43;;;;;;;8.80;7.32;;;;;;;;;;5036022;28;20234;-87
2023/09/09 08:35:10;;;;;;;7.93;7.00;;;;;;;;;;5027927;28;20231;-87
2023/09/09 08:37:37;;;;;;;6.70;6.00;;;;;;;;;;5028091;28;20215;-87
2023/09/09 08:40:05;;;;;;;7.80;6.57;;;;;;;;;;5035810;28;20242;-87
2023/09/09 08:42:39;;;;;;;7.10;6.28;;;;;;;;;;5027494;28;20285;-87
2023/09/09 08:45:10;;;;;;;6.35;5.78;;;;;;;;;;5026849;28;20241;-86
2023/09/09 08:47:37;;;;;;;9.55;5.60;;;;;;;;;;5035343;28;20206;-86
2023/09/09 08:50:06;;;;;;;7.32;5.68;;;;;;;;;;5034429;28;20233;-87
2023/09/09 08:52:33;;;;;;;6.25;5.65;;;;;;;;;;5035302;28;20222;-86
2023/09/09 08:55:01;;;;;;;6.70;5.60;;;;;;;;;;5024003;28;20237;-86
2023/09/09 08:57:28;;;;;;;7.45;5.70;;;;;;;;;;5028281;28;20207;-87
2023/09/09 08:59:56;;;;;;;7.82;5.78;;;;;;;;;;5028577;28;20238;-86
2023/09/09 09:02:24;;;;;;;8.15;6.03;;;;;;;;;;5017512;28;20231;-86
2023/09/09 09:04:52;;;;;;;7.35;5.68;;;;;;;;;;5031771;28;20600;-86
2023/09/09 09:07:22;;;;;;;5.85;5.25;;;;;;;;;;5016340;28;20207;-86
2023/09/09 09:09:49;;;;;;;5.82;5.32;;;;;;;;;;5031815;28;20243;-87
2023/09/09 09:12:16;;;;;;;9.15;5.60;;;;;;;;;;5032097;28;20223;-86
2023/09/09 09:14:47;;;;;;;7.32;5.38;;;;;;;;;;5025546;28;20206;-86
2023/09/09 09:17:16;;;;;;;7.90;5.28;;;;;;;;;;5025763;28;20203;-86
2023/09/09 09:19:43;;;;;;;6.82;5.15;;;;;;;;;;5027459;28;20215;-86
2023/09/09 09:22:12;;;;;;;5.53;5.03;;;;;;;;;;5023482;28;20227;-86
2023/09/09 09:24:43;;;;;;;5.85;4.90;;;;;;;;;;5019052;28;20215;-86
2023/09/09 09:27:11;;;;;;;6.13;5.00;;;;;;;;;;5030872;28;20203;-86
2023/09/09 09:29:41;;;;;;;5.60;4.80;;;;;;;;;;5032004;28;20273;-86
2023/09/09 09:32:09;;;;;;;6.45;5.82;;;;;;;;;;5031594;28;20305;-86
2023/09/09 09:34:37;;;;;;;6.60;5.00;;;;;;;;;;5023971;28;20237;-86
2023/09/09 09:37:05;;;;;;;5.60;5.10;;;;;;;;;;5032070;28;20209;-86
2023/09/09 09:39:35;;;;;;;8.57;5.63;;;;;;;;;;5032136;28;20754;-87
2023/09/09 09:42:04;;;;;;;9.65;5.60;;;;;;;;;;5024254;28;20258;-87
2023/09/09 09:44:31;;;;;;;5.45;4.95;;;;;;;;;;5031899;28;21042;-87
2023/09/09 09:47:02;;;;;;;5.65;5.15;;;;;;;;;;5024206;28;20294;-86
2023/09/09 09:49:34;;;;;;;6.13;5.38;;;;;;;;;;5023887;28;20210;-87
2023/09/09 09:52:01;;;;;;;5.50;4.93;;;;;;;;;;5023542;28;20273;-86
2023/09/09 09:54:28;;;;;;;7.60;4.63;;;;;;;;;;5032586;28;20211;-87
2023/09/09 09:56:56;;;;;;;5.53;5.00;;;;;;;;;;5031893;28;20218;-86
2023/09/09 09:59:25;;;;;;;6.32;5.00;;;;;;;;;;5012549;28;20239;-87
2023/09/09 10:01:53;;;;;;;6.80;4.80;;;;;;;;;;5021084;28;20667;-86
2023/09/09 10:04:21;;;;;;;6.97;5.32;;;;;;;;;;5024488;28;20207;-87
2023/09/09 10:06:49;;;;;;;6.57;5.35;;;;;;;;;;5025416;28;20579;-86
2023/09/09 10:09:19;;;;;;;5.65;5.15;;;;;;;;;;5023582;28;20210;-87
2023/09/09 10:11:51;;;;;;;5.38;4.88;;;;;;;;;;5023619;28;20237;-87
2023/09/09 10:14:22;;;;;;;5.72;5.22;;;;;;;;;;5024504;28;20748;-86
2023/09/09 10:16:52;;;;;;;5.88;5.22;;;;;;;;;;5023841;28;20378;-87
2023/09/09 10:19:20;;;;;;;6.55;4.88;;;;;;;;;;5030057;28;20231;-87
2023/09/09 10:21:49;;;;;;;5.47;4.82;;;;;;;;;;5021085;28;20235;-86
2023/09/09 10:24:17;;;;;;;6.72;4.97;;;;;;;;;;5032105;28;20207;-86
2023/09/09 10:26:44;;;;;;;5.22;4.72;;;;;;;;;;5023632;28;20234;-86
2023/09/09 10:29:11;;;;;;;7.82;5.03;;;;;;;;;;5024325;28;20583;-86
2023/09/09 10:31:40;;;;;;;5.50;5.00;;;;;;;;;;5032092;28;20241;-86
2023/09/09 10:34:10;;;;;;;5.95;5.35;;;;;;;;;;5024243;28;20207;-86
2023/09/09 10:36:37;;;;;;;6.13;4.70;;;;;;;;;;5034961;28;20245;-87
2023/09/09 10:39:05;;;;;;;6.95;5.07;;;;;;;;;;5028027;28;20227;-87
2023/09/09 10:41:32;;;;;;;5.18;4.68;;;;;;;;;;5035957;28;20230;-86
2023/09/09 10:43:59;;;;;;;4.75;4.35;;;;;;;;;;5036499;28;20207;-86
2023/09/09 10:46:33;;;;;;;5.80;4.28;;;;;;;;;;5031579;28;20231;-87
2023/09/09 10:49:02;;;;;;;5.38;4.88;;;;;;;;;;5032366;28;20199;-86
2023/09/09 10:51:30;;;;;;;4.97;4.50;;;;;;;;;;5034716;28;20231;-85
2023/09/09 10:54:08;;;;;;;5.05;4.60;;;;;;;;;;5027501;28;20238;-87
2023/09/09 10:56:35;;;;;;;5.07;4.65;;;;;;;;;;5028090;28;20227;-87
2023/09/09 10:59:16;;;;;;;5.35;4.28;;;;;;;;;;5035030;28;20230;-87
2023/09/09 11:01:43;;;;;;;5.13;4.63;;;;;;;;;;5020622;28;20243;-87
2023/09/09 11:04:19;;;;;;;4.85;4.45;;;;;;;;;;5025016;28;20211;-87
2023/09/09 11:07:00;;;;;;;4.50;4.10;;;;;;;;;;5034621;28;20692;-86
2023/09/09 11:09:30;;;;;;;5.25;4.75;;;;;;;;;;5019582;28;20227;-86
2023/09/09 11:11:57;;;;;;;4.70;4.30;;;;;;;;;;5035763;28;20605;-87
2023/09/09 11:14:30;;;;;;;5.90;4.93;;;;;;;;;;5027157;28;20217;-87
2023/09/09 11:16:57;;;;;;;5.95;4.60;;;;;;;;;;5027846;28;20290;-87
2023/09/09 11:19:25;;;;;;;5.38;4.80;;;;;;;;;;5035606;28;20726;-87
2023/09/09 11:21:52;;;;;;;4.63;4.18;;;;;;;;;;5027923;28;20238;-87
2023/09/09 11:24:21;;;;;;;5.03;4.53;;;;;;;;;;5036158;28;20301;-87
2023/09/09 11:26:49;;;;;;;5.68;4.05;;;;;;;;;;5035905;28;20236;-87
2023/09/09 11:29:18;;;;;;;4.35;3.95;;;;;;;;;;5027722;28;20207;-87
2023/09/09 11:31:45;;;;;;;5.75;4.30;;;;;;;;;;5029913;28;20348;-87
2023/09/09 11:34:12;;;;;;;4.40;4.00;;;;;;;;;;5032786;28;20216;-88
2023/09/09 11:36:40;;;;;;;4.00;3.60;;;;;;;;;;5029299;28;20630;-87
2023/09/09 11:39:08;;;;;;;4.43;4.03;;;;;;;;;;5035752;28;20206;-87
2023/09/09 11:41:36;;;;;;;4.30;3.92;;;;;;;;;;5035310;28;20230;-88
2023/09/09 11:44:04;;;;;;;4.88;3.90;;;;;;;;;;5027694;28;20260;-88
2023/09/09 11:46:33;;;;;;;5.22;3.80;;;;;;;;;;5026826;28;20237;-87
2023/09/09 11:49:00;;;;;;;8.40;3.97;;;;;;;;;;5027837;28;20203;-88
2023/09/09 11:51:28;;;;;;;4.72;4.20;;;;;;;;;;5026965;28;20233;-88
2023/09/09 11:53:55;;;;;;;4.40;4.00;;;;;;;;;;5035715;28;20206;-88
2023/09/09 11:56:22;;;;;;;4.65;4.20;;;;;;;;;;5023873;28;20236;-88
2023/09/09 11:58:50;;;;;;;4.80;4.40;;;;;;;;;;5030272;28;20206;-88
2023/09/09 12:01:19;;;;;;;4.75;4.35;;;;;;;;;;5050647;23;20711;-84
2023/09/09 12:03:48;;;;;;;4.30;3.90;;;;;;;;;;5014776;28;20231;-85
2023/09/09 12:06:16;;;;;;;4.85;4.35;;;;;;;;;;5015234;28;20723;-85
2023/09/09 12:08:43;;;;;;;4.65;4.30;;;;;;;;;;5016550;28;20199;-87
2023/09/09 12:11:12;;;;;;;5.85;4.55;;;;;;;;;;5015133;28;20226;-85
2023/09/09 12:13:40;;;;;;;6.00;4.60;;;;;;;;;;5015779;28;20222;-87
2023/09/09 12:16:09;;;;;;;4.63;4.10;;;;;;;;;;5014647;28;20234;-88
2023/09/09 12:18:36;;;;;;;4.65;4.10;;;;;;;;;;5014066;28;20218;-88
2023/09/09 12:21:04;;;;;;;4.10;3.80;;;;;;;;;;5013537;28;20230;-86
2023/09/09 12:23:32;;;;;;;5.00;4.28;;;;;;;;;;5012704;28;20574;-87
2023/09/09 12:26:08;;;;;;;5.28;4.40;;;;;;;;;;5012322;28;20231;-84
2023/09/09 12:28:35;;;;;;;7.35;3.97;;;;;;;;;;5005054;28;20206;-84
2023/09/09 12:31:03;;;;;;;4.43;3.72;;;;;;;;;;5012367;28;20227;-84
2023/09/09 12:33:38;;;;;;;5.32;4.00;;;;;;;;;;5012640;28;20215;-84
2023/09/09 12:36:05;;;;;;;4.43;3.60;;;;;;;;;;5012418;28;20237;-84
2023/09/09 12:38:38;;;;;;;4.43;4.03;;;;;;;;;;5013541;28;20210;-84
2023/09/09 12:41:06;;;;;;;4.25;3.85;;;;;;;;;;5009980;28;20234;-84
2023/09/09 12:43:34;;;;;;;6.13;4.18;;;;;;;;;;5000998;28;20318;-84
2023/09/09 12:46:04;;;;;;;4.03;3.72;;;;;;;;;;5008561;28;20616;-84
2023/09/09 12:48:33;;;;;;;4.28;3.88;;;;;;;;;;5012643;28;20203;-84
2023/09/09 12:51:00;;;;;;;4.65;4.00;;;;;;;;;;5012044;28;20227;-86
2023/09/09 12:53:27;;;;;;;5.65;3.72;;;;;;;;;;5012361;28;20239;-84
2023/09/09 12:55:54;;;;;;;3.90;3.60;;;;;;;;;;5011610;28;20233;-85
2023/09/09 12:58:21;;;;;;;4.78;4.38;;;;;;;;;;5011482;28;20211;-85
2023/09/09 13:00:48;;;;;;;6.88;3.95;;;;;;;;;;5011829;28;20231;-84
2023/09/09 13:03:15;;;;;;;5.03;4.10;;;;;;;;;;5012054;28;20226;-85
2023/09/09 13:05:44;;;;;;;4.63;4.05;;;;;;;;;;5011388;28;20226;-85
2023/09/09 13:08:11;;;;;;;4.80;4.30;;;;;;;;;;5012929;28;20685;-84
2023/09/09 13:10:38;;;;;;;4.90;4.10;;;;;;;;;;5012603;28;20674;-85
2023/09/09 13:13:05;;;;;;;6.75;4.07;;;;;;;;;;5015340;28;20226;-85
2023/09/09 13:15:33;;;;;;;4.53;4.10;;;;;;;;;;5015067;28;20230;-85
2023/09/09 13:18:00;;;;;;;4.20;3.80;;;;;;;;;;5016845;28;20207;-84
2023/09/09 13:20:27;;;;;;;6.32;4.25;;;;;;;;;;5020150;28;20321;-84
2023/09/09 13:22:56;;;;;;;4.53;4.10;;;;;;;;;;5012767;28;20265;-85
2023/09/09 13:25:24;;;;;;;5.53;4.03;;;;;;;;;;5011428;28;20575;-84
2023/09/09 13:27:52;;;;;;;4.45;4.00;;;;;;;;;;5020375;28;20207;-85
2023/09/09 13:30:19;;;;;;;4.40;4.00;;;;;;;;;;5011570;28;20235;-85
2023/09/09 13:32:46;;;;;;;4.05;3.75;;;;;;;;;;5011945;28;20226;-84
2023/09/09 13:35:14;;;;;;;4.63;3.92;;;;;;;;;;5011261;28;20261;-86
2023/09/09 13:37:42;;;;;;;7.13;4.38;;;;;;;;;;5006021;28;20198;-85
2023/09/09 13:40:11;;;;;;;4.15;3.75;;;;;;;;;;5023705;28;20235;-86
2023/09/09 13:42:38;;;;;;;4.15;3.75;;;;;;;;;;5028891;28;20227;-85
2023/09/09 13:45:05;;;;;;;4.40;4.03;;;;;;;;;;5026476;28;20242;-85
2023/09/09 13:47:32;;;;;;;4.00;3.60;;;;;;;;;;5025930;28;20211;-85
2023/09/09 13:50:02;;;;;;;4.72;3.58;;;;;;;;;;5025150;28;20250;-85
2023/09/09 13:52:29;;;;;;;4.03;3.63;;;;;;;;;;5025996;28;20223;-85
2023/09/09 13:54:56;;;;;;;3.92;3.63;;;;;;;;;;5026902;28;20257;-86
2023/09/09 13:57:25;;;;;;;4.82;3.30;;;;;;;;;;5011383;28;20667;-85
2023/09/09 13:59:52;;;;;;;3.47;2.83;;;;;;;;;;5010973;28;20226;-85
2023/09/09 14:02:19;;;;;;;3.67;3.38;;;;;;;;;;5011163;28;20581;-84
2023/09/09 14:04:46;;;;;;;5.40;3.78;;;;;;;;;;5011009;28;20234;-85
2023/09/09 14:07:13;;;;;;;4.30;3.90;;;;;;;;;;5011259;28;20237;-85
2023/09/09 14:09:40;;;;;;;3.97;3.67;;;;;;;;;;5009989;28;20226;-85
2023/09/09 14:12:08;;;;;;;3.55;3.25;;;;;;;;;;5011258;28;20234;-85
2023/09/09 14:14:36;;;;;;;4.80;3.30;;;;;;;;;;5019189;28;20573;-86
2023/09/09 14:17:04;;;;;;;5.63;4.22;;;;;;;;;;5011141;28;20664;-85
2023/09/09 14:19:31;;;;;;;4.00;3.60;;;;;;;;;;5010449;28;20280;-86
2023/09/09 14:21:58;;;;;;;3.97;3.58;;;;;;;;;;5010873;28;20226;-85
2023/09/09 14:24:25;;;;;;;3.97;3.60;;;;;;;;;;5011151;28;20242;-85
2023/09/09 14:26:52;;;;;;;5.22;3.53;;;;;;;;;;5010418;28;20251;-85
2023/09/09 14:29:20;;;;;;;4.00;3.70;;;;;;;;;;5010867;28;20215;-85
2023/09/09 14:31:48;;;;;;;3.88;3.58;;;;;;;;;;5010254;28;20231;-85
2023/09/09 14:34:15;;;;;;;3.35;3.05;;;;;;;;;;5010699;28;20215;-84
2023/09/09 14:36:42;;;;;;;4.07;3.67;;;;;;;;;;5010315;28;20231;-84
2023/09/09 14:39:09;;;;;;;5.53;3.67;;;;;;;;;;5011169;28;20574;-86
2023/09/09 14:41:36;;;;;;;3.40;3.10;;;;;;;;;;5009803;28;20576;-86
2023/09/09 14:44:03;;;;;;;3.83;3.40;;;;;;;;;;5010862;28;20212;-85